createdAt,value
2018-12-02T00:00:30.376Z,2.25
2018-12-02T00:01:09.812Z,2.02
2018-12-02T00:01:49.670Z,4.70
2018-12-02T00:02:29.712Z,2.20
2018-12-02T00:03:09.359Z,1.95
2018-12-02T00:03:47.564Z,2.60
2018-12-02T00:04:25.755Z,2.10
2018-12-02T00:05:03.997Z,1.87
2018-12-02T00:05:43.308Z,2.20
2018-12-02T00:06:22.036Z,2.10
2018-12-02T00:07:00.258Z,3.25
2018-12-02T00:07:38.606Z,1.70
2018-12-02T00:08:17.070Z,2.30
2018-12-02T00:08:56.022Z,2.17
2018-12-02T00:09:34.935Z,3.95
2018-12-02T00:10:21.221Z,4.40
2018-12-02T00:10:59.645Z,2.02
2018-12-02T00:11:37.954Z,2.12
2018-12-02T00:12:16.944Z,2.17
2018-12-02T00:12:55.252Z,2.05
2018-12-02T00:13:34.002Z,2.17
2018-12-02T00:14:12.490Z,2.10
2018-12-02T00:14:51.541Z,2.30
2018-12-02T00:15:31.662Z,5.30
2018-12-02T00:16:10.281Z,2.60
2018-12-02T00:16:48.606Z,3.90
2018-12-02T00:17:26.859Z,1.98
2018-12-02T00:18:05.634Z,2.10
2018-12-02T00:18:43.944Z,2.25
2018-12-02T00:19:23.504Z,3.17
2018-12-02T00:20:01.911Z,2.10
2018-12-02T00:20:40.725Z,2.30
2018-12-02T00:21:21.112Z,1.92
2018-12-02T00:22:00.506Z,1.95
2018-12-02T00:22:38.663Z,1.90
2018-12-02T00:23:17.210Z,2.08
2018-12-02T00:23:55.790Z,2.50
2018-12-02T00:24:34.302Z,2.47
2018-12-02T00:25:14.429Z,4.60
2018-12-02T00:25:52.727Z,2.60
2018-12-02T00:26:32.054Z,2.20
2018-12-02T00:27:14.506Z,2.40
2018-12-02T00:27:53.850Z,2.35
2018-12-02T00:28:34.306Z,3.65
2018-12-02T00:29:13.403Z,3.40
2018-12-02T00:29:51.776Z,3.47
2018-12-02T00:30:33.054Z,2.90
2018-12-02T00:31:11.597Z,2.05
2018-12-02T00:31:50.099Z,1.82
2018-12-02T00:32:29.102Z,3.50
2018-12-02T00:33:08.112Z,3.15
2018-12-02T00:33:46.344Z,3.33
2018-12-02T00:34:24.758Z,2.35
2018-12-02T00:35:05.062Z,2.33
2018-12-02T00:35:43.167Z,2.70
2018-12-02T00:36:22.336Z,4.22
2018-12-02T00:37:00.679Z,3.50
2018-12-02T00:37:39.866Z,1.98
2018-12-02T00:38:19.154Z,3.12
2018-12-02T00:38:58.753Z,2.62
2018-12-02T00:39:38.447Z,2.37
2018-12-02T00:40:20.886Z,2.60
2018-12-02T00:40:59.965Z,2.33
2018-12-02T00:41:38.092Z,2.33
2018-12-02T00:42:16.084Z,2.20
2018-12-02T00:42:55.305Z,1.90
2018-12-02T00:43:34.265Z,2.52
2018-12-02T00:44:14.470Z,2.37
2018-12-02T00:44:52.904Z,2.47
2018-12-02T00:45:33.421Z,2.60
2018-12-02T00:46:12.701Z,2.62
2018-12-02T00:46:50.996Z,2.83
2018-12-02T00:47:29.133Z,2.67
2018-12-02T00:48:08.865Z,2.62
2018-12-02T00:48:47.218Z,2.47
2018-12-02T00:49:25.532Z,3.08
2018-12-02T00:50:04.198Z,2.75
2018-12-02T00:50:43.684Z,2.00
2018-12-02T00:51:22.929Z,2.42
2018-12-02T00:52:01.506Z,3.42
2018-12-02T00:52:39.849Z,2.55
2018-12-02T00:53:18.369Z,2.52
2018-12-02T00:53:56.577Z,2.27
2018-12-02T00:54:36.168Z,3.13
2018-12-02T00:55:19.144Z,4.33
2018-12-02T00:56:05.353Z,2.60
2018-12-02T00:56:43.645Z,3.07
2018-12-02T00:57:27.029Z,2.80
2018-12-02T00:58:05.969Z,2.50
2018-12-02T00:58:44.431Z,3.47
2018-12-02T00:59:28.759Z,2.60
2018-12-02T01:00:08.971Z,2.65
2018-12-02T01:00:47.338Z,2.70
2018-12-02T01:01:27.485Z,2.83
2018-12-02T01:02:07.523Z,2.42
2018-12-02T01:02:46.081Z,4.20
2018-12-02T01:03:25.437Z,2.25
2018-12-02T01:04:03.977Z,2.87
2018-12-02T01:04:43.157Z,4.13
2018-12-02T01:05:23.611Z,2.75
2018-12-02T01:06:02.058Z,3.75
2018-12-02T01:06:42.115Z,3.60
2018-12-02T01:07:21.673Z,3.05
2018-12-02T01:08:00.957Z,2.58
2018-12-02T01:08:39.910Z,3.98
2018-12-02T01:09:19.940Z,3.12
2018-12-02T01:09:58.672Z,4.70
2018-12-02T01:10:38.638Z,4.83
2018-12-02T01:11:17.320Z,3.62
2018-12-02T01:11:59.842Z,5.15
2018-12-02T01:12:39.229Z,5.80
2018-12-02T01:13:17.661Z,2.95
2018-12-02T01:13:56.236Z,3.33
2018-12-02T01:14:34.493Z,2.67
2018-12-02T01:15:14.067Z,3.35
2018-12-02T01:15:52.552Z,6.12
2018-12-02T01:16:31.093Z,2.95
2018-12-02T01:17:09.252Z,4.40
2018-12-02T01:17:47.829Z,5.28
2018-12-02T01:18:27.368Z,2.92
2018-12-02T01:19:05.850Z,2.70
2018-12-02T01:19:44.060Z,3.17
2018-12-02T01:20:26.823Z,5.10
2018-12-02T01:21:05.833Z,5.53
2018-12-02T01:21:43.923Z,3.05
2018-12-02T01:22:24.406Z,3.95
2018-12-02T01:23:05.454Z,5.78
2018-12-02T01:23:43.893Z,3.75
2018-12-02T01:24:22.052Z,8.65
2018-12-02T01:25:00.573Z,3.80
2018-12-02T01:25:39.190Z,4.30
2018-12-02T01:26:17.459Z,3.22
2018-12-02T01:26:56.397Z,3.33
2018-12-02T01:27:34.550Z,5.15
2018-12-02T01:28:13.060Z,5.17
2018-12-02T01:28:51.373Z,5.05
2018-12-02T01:29:29.584Z,3.12
2018-12-02T01:30:10.993Z,3.10
2018-12-02T01:30:49.542Z,2.60
2018-12-02T01:31:28.797Z,3.60
2018-12-02T01:32:06.822Z,3.20
2018-12-02T01:32:45.814Z,3.30
2018-12-02T01:33:24.375Z,4.55
2018-12-02T01:34:03.446Z,5.47
2018-12-02T01:34:43.008Z,4.25
2018-12-02T01:35:23.549Z,4.35
2018-12-02T01:36:02.605Z,6.75
2018-12-02T01:36:41.007Z,2.77
2018-12-02T01:37:19.516Z,3.02
2018-12-02T01:37:59.129Z,2.45
2018-12-02T01:38:37.741Z,6.42
2018-12-02T01:39:17.763Z,4.05
2018-12-02T01:39:56.298Z,4.30
2018-12-02T01:40:34.801Z,3.05
2018-12-02T01:41:13.111Z,4.72
2018-12-02T01:41:52.790Z,2.98
2018-12-02T01:42:32.065Z,2.92
2018-12-02T01:43:16.765Z,2.83
2018-12-02T01:43:54.980Z,3.37
2018-12-02T01:44:34.274Z,3.08
2018-12-02T01:45:15.494Z,2.92
2018-12-02T01:45:53.761Z,2.70
2018-12-02T01:46:31.797Z,3.95
2018-12-02T01:47:09.725Z,2.80
2018-12-02T01:47:48.145Z,2.90
2018-12-02T01:48:26.514Z,3.87
2018-12-02T01:49:04.921Z,3.10
2018-12-02T01:49:43.038Z,3.08
2018-12-02T01:50:22.754Z,2.47
2018-12-02T01:51:01.018Z,2.58
2018-12-02T01:51:40.072Z,2.80
2018-12-02T01:52:18.561Z,3.72
2018-12-02T01:52:59.628Z,2.25
2018-12-02T01:53:37.754Z,3.35
2018-12-02T01:54:16.875Z,2.90
2018-12-02T01:54:55.470Z,2.35
2018-12-02T01:55:33.993Z,2.70
2018-12-02T01:56:12.721Z,2.72
2018-12-02T01:56:50.829Z,5.42
2018-12-02T01:57:29.478Z,3.67
2018-12-02T01:58:08.426Z,3.75
2018-12-02T01:58:50.361Z,3.00
2018-12-02T01:59:29.674Z,3.17
2018-12-02T02:00:13.830Z,2.35
2018-12-02T02:00:52.258Z,2.90
2018-12-02T02:01:30.757Z,3.08
2018-12-02T02:02:09.477Z,2.75
2018-12-02T02:02:48.033Z,2.80
2018-12-02T02:03:26.444Z,5.00
2018-12-02T02:04:04.653Z,3.00
2018-12-02T02:04:43.089Z,2.85
2018-12-02T02:05:22.214Z,3.42
2018-12-02T02:06:00.606Z,2.75
2018-12-02T02:06:39.085Z,2.80
2018-12-02T02:07:18.233Z,3.25
2018-12-02T02:07:56.519Z,2.70
2018-12-02T02:08:36.110Z,3.47
2018-12-02T02:09:14.747Z,3.22
2018-12-02T02:09:53.849Z,3.25
2018-12-02T02:10:33.017Z,3.10
2018-12-02T02:11:11.814Z,4.05
2018-12-02T02:11:51.147Z,5.30
2018-12-02T02:12:30.633Z,3.60
2018-12-02T02:13:09.705Z,4.97
2018-12-02T02:13:48.369Z,5.28
2018-12-02T02:14:27.053Z,4.83
2018-12-02T02:15:05.496Z,5.37
2018-12-02T02:15:43.789Z,4.45
2018-12-02T02:16:22.999Z,7.28
2018-12-02T02:17:02.426Z,5.35
2018-12-02T02:17:40.812Z,3.70
2018-12-02T02:18:19.381Z,5.65
2018-12-02T02:18:57.750Z,10.13
2018-12-02T02:19:36.577Z,3.15
2018-12-02T02:20:15.982Z,3.37
2018-12-02T02:20:54.504Z,3.75
2018-12-02T02:21:32.753Z,3.20
2018-12-02T02:22:12.776Z,5.15
2018-12-02T02:22:52.436Z,6.28
2018-12-02T02:23:30.722Z,6.37
2018-12-02T02:24:09.233Z,8.10
2018-12-02T02:24:48.414Z,10.48
2018-12-02T02:25:26.979Z,4.40
2018-12-02T02:26:05.647Z,4.90
2018-12-02T02:26:44.041Z,3.15
2018-12-02T02:27:23.238Z,7.15
2018-12-02T02:28:03.451Z,4.90
2018-12-02T02:28:42.155Z,5.13
2018-12-02T02:29:20.794Z,4.35
2018-12-02T02:29:58.960Z,6.50
2018-12-02T02:30:37.879Z,7.62
2018-12-02T02:31:16.648Z,6.33
2018-12-02T02:31:55.033Z,6.10
2018-12-02T02:32:33.880Z,4.72
2018-12-02T02:33:11.932Z,4.12
2018-12-02T02:33:50.685Z,4.20
2018-12-02T02:34:29.438Z,3.35
2018-12-02T02:35:08.057Z,4.50
2018-12-02T02:35:48.125Z,4.00
2018-12-02T02:36:26.181Z,3.60
2018-12-02T02:37:05.319Z,3.05
2018-12-02T02:37:44.027Z,3.42
2018-12-02T02:38:25.370Z,4.10
2018-12-02T02:39:05.309Z,3.33
2018-12-02T02:39:45.098Z,5.12
2018-12-02T02:40:29.193Z,5.95
2018-12-02T02:41:07.681Z,5.58
2018-12-02T02:41:46.062Z,4.92
2018-12-02T02:42:24.461Z,7.35
2018-12-02T02:43:02.786Z,11.35
2018-12-02T02:43:41.979Z,20.20
2018-12-02T02:44:20.661Z,13.38
2018-12-02T02:44:59.224Z,8.33
2018-12-02T02:45:37.809Z,16.57
2018-12-02T02:46:16.377Z,9.23
2018-12-02T02:46:54.991Z,8.13
2018-12-02T02:47:34.786Z,12.75
2018-12-02T02:48:12.746Z,11.18
2018-12-02T02:48:52.636Z,11.15
2018-12-02T02:49:30.809Z,17.70
2018-12-02T02:50:13.898Z,5.22
2018-12-02T02:50:52.169Z,9.40
2018-12-02T02:51:30.425Z,16.45
2018-12-02T02:52:09.184Z,11.57
2018-12-02T02:52:48.750Z,13.45
2018-12-02T02:53:27.876Z,18.82
2018-12-02T02:54:06.288Z,21.75
2018-12-02T02:54:45.010Z,10.35
2018-12-02T02:55:23.218Z,5.95
2018-12-02T02:56:01.670Z,11.50
2018-12-02T02:56:41.485Z,5.75
2018-12-02T02:57:19.562Z,6.42
2018-12-02T02:57:58.130Z,6.85
2018-12-02T02:58:37.384Z,7.83
2018-12-02T02:59:17.416Z,5.75
2018-12-02T02:59:55.846Z,10.90
2018-12-02T03:00:34.195Z,6.47
2018-12-02T03:01:13.495Z,5.60
2018-12-02T03:01:51.946Z,7.00
2018-12-02T03:02:31.237Z,5.65
2018-12-02T03:03:12.442Z,7.55
2018-12-02T03:03:50.590Z,4.50
2018-12-02T03:04:29.795Z,5.83
2018-12-02T03:05:08.620Z,7.08
2018-12-02T03:05:47.779Z,9.13
2018-12-02T03:06:27.651Z,7.25
2018-12-02T03:07:06.280Z,5.03
2018-12-02T03:07:45.348Z,8.58
2018-12-02T03:08:23.816Z,4.97
2018-12-02T03:09:02.282Z,6.35
2018-12-02T03:09:40.697Z,6.20
2018-12-02T03:10:20.878Z,5.80
2018-12-02T03:11:00.763Z,9.90
2018-12-02T03:11:39.545Z,6.95
2018-12-02T03:12:17.845Z,7.80
2018-12-02T03:12:56.805Z,7.22
2018-12-02T03:13:35.413Z,12.28
2018-12-02T03:14:14.448Z,5.37
2018-12-02T03:14:52.889Z,6.25
2018-12-02T03:15:31.448Z,6.40
2018-12-02T03:16:09.784Z,7.90
2018-12-02T03:16:49.667Z,5.30
2018-12-02T03:17:28.272Z,4.45
2018-12-02T03:18:06.534Z,4.50
2018-12-02T03:18:44.811Z,6.70
2018-12-02T03:19:23.228Z,7.97
2018-12-02T03:20:01.870Z,4.30
2018-12-02T03:20:40.492Z,6.30
2018-12-02T03:21:19.069Z,5.12
2018-12-02T03:21:57.208Z,4.97
2018-12-02T03:22:35.284Z,7.40
2018-12-02T03:23:14.733Z,5.45
2018-12-02T03:23:53.362Z,9.33
2018-12-02T03:24:31.665Z,7.12
2018-12-02T03:25:11.484Z,8.55
2018-12-02T03:25:50.032Z,8.15
2018-12-02T03:26:31.724Z,9.15
2018-12-02T03:27:11.219Z,5.47
2018-12-02T03:27:49.685Z,9.30
2018-12-02T03:28:28.051Z,7.33
2018-12-02T03:29:06.560Z,6.80
2018-12-02T03:29:45.858Z,7.87
2018-12-02T03:30:26.590Z,5.80
2018-12-02T03:31:05.262Z,7.50
2018-12-02T03:31:43.432Z,7.47
2018-12-02T03:32:22.038Z,7.22
2018-12-02T03:33:00.579Z,8.63
2018-12-02T03:33:38.686Z,5.28
2018-12-02T03:34:16.586Z,4.90
2018-12-02T03:34:55.983Z,4.28
2018-12-02T03:35:34.017Z,5.35
2018-12-02T03:36:12.383Z,6.53
2018-12-02T03:36:51.082Z,4.92
2018-12-02T03:37:30.789Z,7.78
2018-12-02T03:38:13.590Z,5.90
2018-12-02T03:38:52.022Z,11.90
2018-12-02T03:39:30.545Z,7.45
2018-12-02T03:40:14.839Z,7.25
2018-12-02T03:40:54.831Z,11.55
2018-12-02T03:41:32.964Z,26.02
2018-12-02T03:42:11.486Z,8.40
2018-12-02T03:42:50.194Z,11.18
2018-12-02T03:43:29.125Z,7.00
2018-12-02T03:44:07.326Z,9.30
2018-12-02T03:44:45.515Z,4.70
2018-12-02T03:45:26.835Z,6.60
2018-12-02T03:46:05.077Z,8.23
2018-12-02T03:46:44.248Z,7.30
2018-12-02T03:47:23.453Z,4.37
2018-12-02T03:48:02.156Z,5.75
2018-12-02T03:48:41.068Z,10.27
2018-12-02T03:49:19.025Z,3.85
2018-12-02T03:49:58.133Z,4.60
2018-12-02T03:50:36.576Z,5.03
2018-12-02T03:51:15.014Z,10.08
2018-12-02T03:51:53.685Z,4.05
2018-12-02T03:52:33.543Z,7.15
2018-12-02T03:53:11.919Z,4.60
2018-12-02T03:53:53.061Z,6.67
2018-12-02T03:54:31.811Z,6.58
2018-12-02T03:55:11.286Z,5.75
2018-12-02T03:55:49.663Z,4.75
2018-12-02T03:56:28.651Z,6.40
2018-12-02T03:57:09.917Z,6.87
2018-12-02T03:57:48.329Z,4.78
2018-12-02T03:58:26.932Z,4.47
2018-12-02T03:59:07.767Z,6.10
2018-12-02T03:59:46.956Z,5.17
2018-12-02T04:00:27.116Z,4.80
2018-12-02T04:01:07.488Z,5.37
2018-12-02T04:01:47.887Z,7.10
2018-12-02T04:02:26.124Z,6.65
2018-12-02T04:03:04.340Z,6.97
2018-12-02T04:03:43.990Z,6.17
2018-12-02T04:04:22.375Z,6.97
2018-12-02T04:05:02.330Z,5.30
2018-12-02T04:05:42.070Z,6.20
2018-12-02T04:06:21.279Z,7.03
2018-12-02T04:06:59.634Z,5.08
2018-12-02T04:07:37.897Z,5.28
2018-12-02T04:08:17.663Z,4.50
2018-12-02T04:08:57.101Z,8.08
2018-12-02T04:09:37.656Z,3.90
2018-12-02T04:10:19.092Z,5.97
2018-12-02T04:10:58.969Z,5.62
2018-12-02T04:11:38.450Z,5.08
2018-12-02T04:12:17.292Z,4.95
2018-12-02T04:12:56.131Z,6.97
2018-12-02T04:13:34.626Z,4.87
2018-12-02T04:14:13.174Z,5.22
2018-12-02T04:14:51.918Z,5.60
2018-12-02T04:15:30.262Z,4.85
2018-12-02T04:16:09.196Z,4.08
2018-12-02T04:16:47.819Z,5.00
2018-12-02T04:17:26.710Z,3.80
2018-12-02T04:18:05.364Z,5.60
2018-12-02T04:18:43.624Z,4.55
2018-12-02T04:19:22.866Z,3.98
2018-12-02T04:20:02.101Z,4.47
2018-12-02T04:20:40.752Z,4.40
2018-12-02T04:21:19.864Z,5.03
2018-12-02T04:21:58.104Z,6.03
2018-12-02T04:22:37.264Z,5.13
2018-12-02T04:23:16.073Z,6.05
2018-12-02T04:23:54.106Z,5.03
2018-12-02T04:24:32.738Z,9.53
2018-12-02T04:25:13.649Z,9.50
2018-12-02T04:25:52.790Z,6.55
2018-12-02T04:26:35.266Z,6.30
2018-12-02T04:27:13.504Z,5.87
2018-12-02T04:27:51.756Z,5.05
2018-12-02T04:28:30.076Z,4.85
2018-12-02T04:29:08.620Z,6.35
2018-12-02T04:29:46.969Z,3.55
2018-12-02T04:30:26.763Z,3.92
2018-12-02T04:31:05.875Z,5.47
2018-12-02T04:31:44.479Z,8.70
2018-12-02T04:32:22.970Z,4.83
2018-12-02T04:33:01.962Z,6.60
2018-12-02T04:33:42.991Z,6.87
2018-12-02T04:34:22.742Z,6.67
2018-12-02T04:35:01.028Z,5.40
2018-12-02T04:35:39.375Z,7.05
2018-12-02T04:36:17.509Z,5.42
2018-12-02T04:36:55.667Z,5.60
2018-12-02T04:37:34.051Z,6.60
2018-12-02T04:38:12.075Z,3.65
2018-12-02T04:38:50.760Z,6.83
2018-12-02T04:39:29.328Z,9.20
2018-12-02T04:40:09.407Z,7.83
2018-12-02T04:40:48.234Z,4.95
2018-12-02T04:41:26.505Z,5.47
2018-12-02T04:42:07.586Z,6.12
2018-12-02T04:42:45.867Z,7.37
2018-12-02T04:43:25.087Z,5.45
2018-12-02T04:44:03.383Z,6.55
2018-12-02T04:44:42.585Z,4.90
2018-12-02T04:45:22.968Z,7.65
2018-12-02T04:46:01.451Z,5.03
2018-12-02T04:46:41.405Z,5.30
2018-12-02T04:47:20.708Z,7.40
2018-12-02T04:48:00.048Z,5.05
2018-12-02T04:48:38.362Z,5.63
2018-12-02T04:49:16.811Z,5.00
2018-12-02T04:49:56.728Z,5.80
2018-12-02T04:50:35.126Z,6.70
2018-12-02T04:51:17.468Z,7.22
2018-12-02T04:51:56.100Z,7.03
2018-12-02T04:52:35.321Z,6.50
2018-12-02T04:53:16.981Z,8.93
2018-12-02T04:53:55.010Z,6.72
2018-12-02T04:54:33.667Z,6.47
2018-12-02T04:55:12.983Z,10.08
2018-12-02T04:55:51.360Z,7.75
2018-12-02T04:56:29.402Z,7.65
2018-12-02T04:57:08.356Z,6.92
2018-12-02T04:57:46.652Z,8.15
2018-12-02T04:58:25.007Z,11.63
2018-12-02T04:59:03.165Z,5.67
2018-12-02T04:59:43.360Z,6.85
2018-12-02T05:00:22.586Z,6.50
2018-12-02T05:01:01.888Z,9.70
2018-12-02T05:01:40.985Z,8.58
2018-12-02T05:02:19.393Z,8.38
2018-12-02T05:02:58.014Z,6.50
2018-12-02T05:03:37.060Z,8.33
2018-12-02T05:04:15.260Z,6.50
2018-12-02T05:04:53.473Z,6.22
2018-12-02T05:05:32.040Z,8.05
2018-12-02T05:06:11.340Z,5.83
2018-12-02T05:06:49.644Z,12.10
2018-12-02T05:07:28.360Z,8.10
2018-12-02T05:08:07.180Z,5.25
2018-12-02T05:08:45.598Z,6.90
2018-12-02T05:09:24.194Z,8.30
2018-12-02T05:10:02.701Z,11.20
2018-12-02T05:10:41.100Z,7.43
2018-12-02T05:11:19.813Z,7.83
2018-12-02T05:11:58.122Z,5.92
2018-12-02T05:12:36.760Z,8.43
2018-12-02T05:13:15.173Z,8.98
2018-12-02T05:13:53.746Z,7.97
2018-12-02T05:14:32.715Z,7.05
2018-12-02T05:15:12.563Z,8.33
2018-12-02T05:15:50.853Z,6.40
2018-12-02T05:16:29.208Z,10.82
2018-12-02T05:17:07.675Z,6.70
2018-12-02T05:17:45.796Z,7.30
2018-12-02T05:18:25.628Z,9.28
2018-12-02T05:19:04.043Z,10.05
2018-12-02T05:19:43.146Z,7.25
2018-12-02T05:20:25.083Z,7.58
2018-12-02T05:21:05.141Z,11.38
2018-12-02T05:21:45.201Z,8.95
2018-12-02T05:22:25.256Z,11.95
2018-12-02T05:23:03.625Z,9.43
2018-12-02T05:23:43.081Z,7.47
2018-12-02T05:24:21.663Z,11.22
2018-12-02T05:25:00.695Z,6.62
2018-12-02T05:25:39.047Z,9.05
2018-12-02T05:26:17.072Z,7.75
2018-12-02T05:26:55.950Z,9.55
2018-12-02T05:27:39.365Z,6.85
2018-12-02T05:28:17.674Z,7.78
2018-12-02T05:28:56.165Z,8.60
2018-12-02T05:29:34.779Z,7.37
2018-12-02T05:30:18.515Z,10.90
2018-12-02T05:30:56.909Z,7.55
2018-12-02T05:31:35.165Z,8.43
2018-12-02T05:32:13.644Z,7.80
2018-12-02T05:33:01.079Z,6.47
2018-12-02T05:33:39.818Z,8.33
2018-12-02T05:34:18.322Z,9.18
2018-12-02T05:34:57.960Z,7.53
2018-12-02T05:35:36.194Z,9.83
2018-12-02T05:36:14.312Z,13.40
2018-12-02T05:36:53.118Z,7.95
2018-12-02T05:37:31.420Z,7.78
2018-12-02T05:38:10.047Z,7.45
2018-12-02T05:38:48.363Z,7.05
2018-12-02T05:39:28.017Z,8.55
2018-12-02T05:40:07.540Z,8.88
2018-12-02T05:40:46.635Z,7.60
2018-12-02T05:41:29.024Z,6.30
2018-12-02T05:42:11.106Z,9.03
2018-12-02T05:42:51.744Z,8.45
2018-12-02T05:43:29.761Z,8.03
2018-12-02T05:44:08.771Z,7.15
2018-12-02T05:44:46.651Z,8.38
2018-12-02T05:45:25.163Z,6.92
2018-12-02T05:46:03.240Z,7.45
2018-12-02T05:46:41.185Z,6.83
2018-12-02T05:47:20.254Z,7.00
2018-12-02T05:47:58.307Z,6.45
2018-12-02T05:48:36.413Z,8.33
2018-12-02T05:49:14.461Z,8.90
2018-12-02T05:49:52.483Z,7.65
2018-12-02T05:50:31.056Z,9.23
2018-12-02T05:51:09.024Z,6.78
2018-12-02T05:51:48.198Z,7.10
2018-12-02T05:52:26.263Z,6.78
2018-12-02T05:53:05.477Z,7.20
2018-12-02T05:53:43.673Z,8.98
2018-12-02T05:54:22.551Z,9.55
2018-12-02T05:55:01.699Z,10.35
2018-12-02T05:55:41.608Z,8.73
2018-12-02T05:56:21.263Z,7.90
2018-12-02T05:57:01.125Z,10.60
2018-12-02T05:57:41.005Z,7.15
2018-12-02T05:58:19.623Z,7.70
2018-12-02T05:58:58.300Z,7.28
2018-12-02T05:59:37.443Z,7.50
2018-12-02T06:00:17.444Z,7.08
2018-12-02T06:00:55.785Z,8.58
2018-12-02T06:01:34.818Z,7.97
2018-12-02T06:02:17.642Z,9.08
2018-12-02T06:02:55.263Z,9.18
2018-12-02T06:03:34.548Z,8.18
2018-12-02T06:04:12.639Z,6.47
2018-12-02T06:04:50.725Z,7.12
2018-12-02T06:05:30.651Z,8.28
2018-12-02T06:06:09.011Z,11.05
2018-12-02T06:06:47.326Z,7.37
2018-12-02T06:07:25.512Z,7.08
2018-12-02T06:08:03.718Z,8.60
2018-12-02T06:08:42.104Z,7.97
2018-12-02T06:09:20.848Z,9.78
2018-12-02T06:09:59.304Z,7.97
2018-12-02T06:10:40.184Z,7.85
2018-12-02T06:11:18.724Z,14.05
2018-12-02T06:11:57.042Z,6.72
2018-12-02T06:12:35.409Z,8.30
2018-12-02T06:13:13.947Z,8.10
2018-12-02T06:13:52.176Z,9.88
2018-12-02T06:14:30.568Z,6.67
2018-12-02T06:15:23.800Z,10.65
2018-12-02T06:16:02.630Z,9.48
2018-12-02T06:16:41.728Z,8.70
2018-12-02T06:17:19.684Z,7.85
2018-12-02T06:17:58.861Z,8.18
2018-12-02T06:18:37.832Z,6.23
2018-12-02T06:19:16.815Z,9.60
2018-12-02T06:19:56.080Z,10.18
2018-12-02T06:20:36.695Z,6.00
2018-12-02T06:21:15.044Z,7.70
2018-12-02T06:21:54.808Z,7.40
2018-12-02T06:22:34.591Z,7.72
2018-12-02T06:23:13.768Z,7.22
2018-12-02T06:23:52.127Z,6.42
2018-12-02T06:24:30.438Z,6.12
2018-12-02T06:25:09.255Z,6.15
2018-12-02T06:25:47.476Z,7.85
2018-12-02T06:26:25.961Z,7.80
2018-12-02T06:27:04.546Z,5.87
2018-12-02T06:27:42.802Z,6.15
2018-12-02T06:28:21.737Z,8.08
2018-12-02T06:29:00.680Z,7.15
2018-12-02T06:29:38.869Z,6.78
2018-12-02T06:30:29.753Z,6.47
2018-12-02T06:31:07.757Z,6.78
2018-12-02T06:31:46.052Z,6.12
2018-12-02T06:32:24.797Z,6.72
2018-12-02T06:33:04.657Z,7.03
2018-12-02T06:33:43.251Z,7.55
2018-12-02T06:34:21.595Z,6.55
2018-12-02T06:35:01.546Z,6.75
2018-12-02T06:35:39.694Z,6.00
2018-12-02T06:36:17.907Z,6.05
2018-12-02T06:36:56.052Z,6.80
2018-12-02T06:37:35.128Z,6.22
2018-12-02T06:38:14.270Z,8.40
2018-12-02T06:38:52.287Z,7.17
2018-12-02T06:39:31.804Z,6.47
2018-12-02T06:40:16.413Z,7.25
2018-12-02T06:40:56.045Z,5.90
2018-12-02T06:41:35.499Z,7.55
2018-12-02T06:42:17.155Z,7.22
2018-12-02T06:42:57.368Z,5.30
2018-12-02T06:43:37.008Z,6.60
2018-12-02T06:44:19.261Z,6.00
2018-12-02T06:44:59.397Z,6.70
2018-12-02T06:45:39.168Z,8.28
2018-12-02T06:46:17.352Z,5.47
2018-12-02T06:46:55.789Z,5.78
2018-12-02T06:47:34.778Z,5.50
2018-12-02T06:48:13.461Z,5.80
2018-12-02T06:48:53.005Z,6.42
2018-12-02T06:49:31.821Z,8.00
2018-12-02T06:50:43.063Z,6.22
2018-12-02T06:51:22.695Z,7.75
2018-12-02T06:52:00.873Z,7.28
2018-12-02T06:52:40.348Z,6.17
2018-12-02T06:53:18.413Z,7.20
2018-12-02T06:53:56.592Z,6.30
2018-12-02T06:55:03.455Z,5.80
2018-12-02T06:55:54.809Z,5.30
2018-12-02T06:56:42.267Z,7.80
2018-12-02T06:57:30.411Z,6.12
2018-12-02T06:58:18.813Z,5.50
2018-12-02T06:59:08.195Z,5.00
2018-12-02T06:59:56.364Z,6.87
2018-12-02T07:00:56.171Z,5.27
2018-12-02T07:01:46.966Z,6.33
2018-12-02T07:02:40.915Z,6.05
2018-12-02T07:03:32.283Z,5.75
2018-12-02T07:04:29.583Z,6.67
2018-12-02T07:05:09.365Z,8.03
2018-12-02T07:05:49.252Z,6.40
2018-12-02T07:06:27.781Z,6.05
2018-12-02T07:07:06.612Z,5.50
2018-12-02T07:07:45.922Z,5.83
2018-12-02T07:08:25.825Z,5.40
2018-12-02T07:09:03.971Z,5.15
2018-12-02T07:09:43.316Z,5.90
2018-12-02T07:10:22.357Z,5.97
2018-12-02T07:11:01.752Z,6.35
2018-12-02T07:11:40.323Z,6.30
2018-12-02T07:12:19.533Z,5.33
2018-12-02T07:12:58.406Z,5.30
2018-12-02T07:13:38.122Z,5.20
2018-12-02T07:14:16.208Z,7.35
2018-12-02T07:14:56.049Z,5.78
2018-12-02T07:15:35.989Z,5.22
2018-12-02T07:16:15.928Z,5.50
2018-12-02T07:16:55.068Z,5.78
2018-12-02T07:17:40.744Z,5.17
2018-12-02T07:18:25.820Z,5.37
2018-12-02T07:19:15.491Z,5.35
2018-12-02T07:20:00.486Z,5.10
2018-12-02T07:20:42.602Z,5.10
2018-12-02T07:21:28.968Z,5.58
2018-12-02T07:22:15.370Z,6.60
2018-12-02T07:22:56.955Z,6.30
2018-12-02T07:23:39.473Z,5.90
2018-12-02T07:24:27.686Z,5.20
2018-12-02T07:25:09.304Z,5.70
2018-12-02T07:25:51.293Z,5.80
2018-12-02T07:26:36.715Z,4.65
2018-12-02T07:27:20.831Z,6.05
2018-12-02T07:27:59.460Z,5.03
2018-12-02T07:28:38.746Z,6.17
2018-12-02T07:29:17.280Z,6.90
2018-12-02T07:29:55.609Z,6.47
2018-12-02T07:30:35.013Z,8.57
2018-12-02T07:31:13.769Z,5.25
2018-12-02T07:31:52.576Z,6.42
2018-12-02T07:32:31.819Z,5.40
2018-12-02T07:33:10.500Z,5.35
2018-12-02T07:33:49.658Z,10.48
2018-12-02T07:34:27.956Z,4.67
2018-12-02T07:35:06.682Z,5.25
2018-12-02T07:35:46.149Z,5.58
2018-12-02T07:36:25.352Z,5.83
2018-12-02T07:37:05.103Z,7.00
2018-12-02T07:37:43.723Z,7.05
2018-12-02T07:38:32.062Z,5.30
2018-12-02T07:40:36.202Z,7.62
2018-12-02T07:41:17.596Z,5.15
2018-12-02T07:41:57.045Z,5.92
2018-12-02T07:42:35.678Z,5.97
2018-12-02T07:43:16.190Z,6.50
2018-12-02T07:43:55.222Z,7.22
2018-12-02T07:44:33.887Z,5.15
2018-12-02T07:45:13.232Z,5.78
2018-12-02T07:45:53.577Z,6.80
2018-12-02T07:46:32.992Z,5.25
2018-12-02T07:47:12.165Z,5.20
2018-12-02T07:47:55.370Z,4.95
2018-12-02T07:48:34.433Z,4.85
2018-12-02T07:49:16.672Z,6.65
2018-12-02T07:49:55.198Z,7.40
2018-12-02T07:50:34.237Z,4.70
2018-12-02T07:51:13.091Z,5.50
2018-12-02T07:51:51.390Z,6.62
2018-12-02T07:52:31.367Z,4.58
2018-12-02T07:53:15.646Z,6.42
2018-12-02T07:53:55.308Z,9.30
2018-12-02T07:54:41.666Z,4.97
2018-12-02T07:55:21.665Z,5.78
2018-12-02T07:56:03.542Z,4.70
2018-12-02T07:56:44.755Z,7.53
2018-12-02T07:57:25.038Z,4.92
2018-12-02T07:58:05.917Z,5.37
2018-12-02T07:58:48.354Z,4.10
2018-12-02T07:59:26.855Z,15.08
2018-12-02T08:00:05.558Z,4.70
2018-12-02T08:00:44.192Z,5.67
2018-12-02T08:01:22.378Z,6.60
2018-12-02T08:02:01.044Z,5.25
2018-12-02T08:02:40.576Z,4.70
2018-12-02T08:03:18.657Z,6.12
2018-12-02T08:03:57.586Z,5.55
2018-12-02T08:04:36.188Z,5.57
2018-12-02T08:05:15.808Z,4.62
2018-12-02T08:05:54.615Z,6.58
2018-12-02T08:06:34.421Z,7.53
2018-12-02T08:07:14.231Z,5.00
2018-12-02T08:07:55.207Z,5.92
2018-12-02T08:08:33.382Z,6.65
2018-12-02T08:09:12.318Z,4.85
2018-12-02T08:09:50.800Z,5.92
2018-12-02T08:10:28.858Z,7.83
2018-12-02T08:11:07.373Z,5.70
2018-12-02T08:11:45.429Z,7.15
2018-12-02T08:13:46.021Z,5.42
2018-12-02T08:14:24.509Z,5.40
2018-12-02T08:15:07.442Z,8.18
2018-12-02T08:15:46.564Z,4.47
2018-12-02T08:16:25.388Z,5.15
2018-12-02T08:17:05.435Z,8.40
2018-12-02T08:17:44.516Z,5.47
2018-12-02T08:18:23.191Z,4.35
2018-12-02T08:19:01.916Z,5.10
2018-12-02T08:19:40.299Z,5.75
2018-12-02T08:20:20.230Z,6.62
2018-12-02T08:21:00.287Z,6.50
2018-12-02T08:21:39.687Z,10.45
2018-12-02T08:22:20.213Z,5.72
2018-12-02T08:22:59.705Z,6.95
2018-12-02T08:23:39.382Z,4.40
2018-12-02T08:24:19.360Z,4.75
2018-12-02T08:24:58.308Z,6.85
2018-12-02T08:25:38.015Z,5.45
2018-12-02T08:26:16.587Z,4.97
2018-12-02T08:26:56.547Z,7.10
2018-12-02T08:27:37.755Z,5.03
2018-12-02T08:28:15.881Z,5.05
2018-12-02T08:28:55.382Z,5.00
2018-12-02T08:29:33.620Z,5.30
2018-12-02T08:30:20.576Z,5.30
2018-12-02T08:30:59.027Z,4.55
2018-12-02T08:31:37.431Z,4.58
2018-12-02T08:32:17.356Z,5.85
2018-12-02T08:32:55.741Z,4.37
2018-12-02T08:33:34.258Z,4.62
2018-12-02T08:34:12.252Z,6.92
2018-12-02T08:34:50.310Z,5.42
2018-12-02T08:35:30.806Z,4.50
2018-12-02T08:36:09.259Z,4.80
2018-12-02T08:36:47.304Z,5.22
2018-12-02T08:37:25.846Z,4.92
2018-12-02T08:38:10.109Z,5.75
2018-12-02T08:38:48.919Z,5.85
2018-12-02T08:39:28.601Z,4.35
2018-12-02T08:40:07.513Z,6.95
2018-12-02T08:40:46.929Z,5.58
2018-12-02T08:41:25.193Z,6.80
2018-12-02T08:42:03.745Z,4.70
2018-12-02T08:42:43.599Z,6.10
2018-12-02T08:43:23.211Z,4.70
2018-12-02T08:44:01.872Z,6.20
2018-12-02T08:44:40.227Z,7.30
2018-12-02T08:45:19.166Z,4.40
2018-12-02T08:45:58.829Z,4.50
2018-12-02T08:46:38.010Z,6.50
2018-12-02T08:47:17.314Z,4.50
2018-12-02T08:47:58.245Z,4.60